createdAt,value
2022-08-17T00:01:52.361Z,14.55
2022-08-17T00:04:20.363Z,14.32
2022-08-17T00:06:49.131Z,15.18
2022-08-17T00:09:18.433Z,14.40
2022-08-17T00:12:40.724Z,14.80
2022-08-17T00:14:33.885Z,15.07
2022-08-17T00:17:00.980Z,14.73
2022-08-17T00:19:28.029Z,15.70
2022-08-17T00:22:32.891Z,14.70
2022-08-17T00:24:44.803Z,15.18
2022-08-17T00:27:11.911Z,15.00
2022-08-17T00:29:38.954Z,14.57
2022-08-17T00:33:14.905Z,15.52
2022-08-17T00:34:53.583Z,15.82
2022-08-17T00:37:20.695Z,14.77
2022-08-17T00:39:47.861Z,14.93
2022-08-17T00:42:18.890Z,14.30
2022-08-17T00:44:46.065Z,14.32
2022-08-17T00:47:13.133Z,15.02
2022-08-17T00:49:40.265Z,14.77
2022-08-17T00:52:15.345Z,14.85
2022-08-17T00:54:44.051Z,14.35
2022-08-17T00:57:17.061Z,15.23
2022-08-17T01:00:02.550Z,14.82
2022-08-17T01:02:41.217Z,15.52
2022-08-17T01:05:11.308Z,15.45
2022-08-17T01:07:38.752Z,15.77
2022-08-17T01:10:07.269Z,14.90
2022-08-17T01:12:54.769Z,15.77
2022-08-17T01:15:21.885Z,15.88
2022-08-17T01:17:49.006Z,15.73
2022-08-17T01:20:16.815Z,15.45
2022-08-17T01:22:43.931Z,14.77
2022-08-17T01:25:12.526Z,15.02
2022-08-17T01:27:39.660Z,14.98
2022-08-17T01:30:56.978Z,15.77
2022-08-17T01:32:56.203Z,14.70
2022-08-17T01:35:23.292Z,14.77
2022-08-17T01:37:53.467Z,15.23
2022-08-17T01:40:26.492Z,14.43
2022-08-17T01:43:02.331Z,14.90
2022-08-17T01:45:33.795Z,14.55
2022-08-17T01:48:01.360Z,15.27
2022-08-17T01:50:30.064Z,14.75
2022-08-17T01:53:02.717Z,14.35
2022-08-17T01:55:32.828Z,14.32
2022-08-17T01:58:00.231Z,15.00
2022-08-17T02:00:59.773Z,15.02
2022-08-17T02:03:17.136Z,14.40
2022-08-17T02:05:44.440Z,14.52
2022-08-17T02:08:19.915Z,15.30
2022-08-17T02:10:48.223Z,14.43
2022-08-17T02:13:15.948Z,13.95
2022-08-17T02:15:43.073Z,13.93
2022-08-17T02:18:11.054Z,14.90
2022-08-17T02:20:41.507Z,15.10
2022-08-17T02:23:09.829Z,14.32
2022-08-17T02:25:37.321Z,14.38
2022-08-17T02:28:04.926Z,13.45
2022-08-17T02:31:00.310Z,12.88
2022-08-17T02:33:20.360Z,14.07
2022-08-17T02:35:47.583Z,14.35
2022-08-17T02:38:15.151Z,14.52
2022-08-17T02:40:42.185Z,14.02
2022-08-17T02:43:13.667Z,13.30
2022-08-17T02:45:40.766Z,14.23
2022-08-17T02:48:07.901Z,14.70
2022-08-17T02:50:35.001Z,14.20
2022-08-17T02:53:02.922Z,14.80
2022-08-17T02:55:36.240Z,14.32
2022-08-17T02:58:03.710Z,14.52
2022-08-17T03:00:35.803Z,15.38
2022-08-17T03:03:05.985Z,15.32
2022-08-17T03:05:34.793Z,15.05
2022-08-17T03:08:02.085Z,15.30
2022-08-17T03:10:29.720Z,14.10
2022-08-17T03:12:56.786Z,15.07
2022-08-17T03:15:28.556Z,13.73
2022-08-17T03:17:56.639Z,13.82
2022-08-17T03:20:24.737Z,14.80
2022-08-17T03:22:53.819Z,14.35
2022-08-17T03:25:25.645Z,14.40
2022-08-17T03:27:52.857Z,14.57
2022-08-17T03:30:22.343Z,15.45
2022-08-17T03:32:50.574Z,15.00
2022-08-17T03:35:19.443Z,14.55
2022-08-17T03:37:46.515Z,14.18
2022-08-17T03:40:18.534Z,14.73
2022-08-17T03:43:09.077Z,14.43
2022-08-17T03:45:55.289Z,15.35
2022-08-17T03:48:42.574Z,15.25
2022-08-17T03:51:33.532Z,15.60
2022-08-17T03:54:19.553Z,15.95
2022-08-17T03:56:49.638Z,15.77
2022-08-17T03:59:21.041Z,15.07
2022-08-17T04:01:52.252Z,14.80
2022-08-17T04:04:27.398Z,15.27
2022-08-17T04:06:54.978Z,15.30
2022-08-17T04:09:22.046Z,15.00
2022-08-17T04:11:49.138Z,13.68
2022-08-17T04:14:16.189Z,13.40
2022-08-17T04:16:43.355Z,13.20
2022-08-17T04:19:10.447Z,13.35
2022-08-17T04:21:37.560Z,12.25
2022-08-17T04:24:05.043Z,12.98
2022-08-17T04:26:53.770Z,11.52
2022-08-17T04:29:19.403Z,11.02
2022-08-17T04:31:46.495Z,11.18
2022-08-17T04:34:13.543Z,9.63
2022-08-17T04:36:40.630Z,8.57
2022-08-17T04:39:17.440Z,8.77
2022-08-17T04:42:02.949Z,7.90
2022-08-17T04:44:37.040Z,8.50
2022-08-17T04:47:05.280Z,7.97
2022-08-17T04:49:32.545Z,7.47
2022-08-17T04:52:04.347Z,7.68
2022-08-17T04:54:31.720Z,7.00
2022-08-17T04:56:58.797Z,7.78
2022-08-17T04:59:25.987Z,7.05
2022-08-17T05:01:53.070Z,6.32
2022-08-17T05:04:33.990Z,6.40
2022-08-17T05:07:02.427Z,6.20
2022-08-17T05:09:29.533Z,6.75
2022-08-17T05:11:56.599Z,6.28
2022-08-17T05:14:33.097Z,6.75
2022-08-17T05:17:01.131Z,7.78
2022-08-17T05:19:28.775Z,5.80
2022-08-17T05:21:55.838Z,8.50
2022-08-17T05:24:40.696Z,8.02
2022-08-17T05:27:10.012Z,8.95
2022-08-17T05:29:42.161Z,8.80
2022-08-17T05:32:38.642Z,8.82
2022-08-17T05:35:00.751Z,8.88
2022-08-17T05:37:27.972Z,8.98
2022-08-17T05:39:55.138Z,9.23
2022-08-17T05:42:22.701Z,9.02
2022-08-17T05:44:49.799Z,9.43
2022-08-17T05:47:18.254Z,9.35
2022-08-17T05:49:45.426Z,9.05
2022-08-17T05:52:35.122Z,9.40
2022-08-17T05:55:02.212Z,8.73
2022-08-17T05:57:54.205Z,8.55
2022-08-17T06:00:31.192Z,9.10
2022-08-17T06:03:16.125Z,9.88
2022-08-17T06:05:55.500Z,9.88
2022-08-17T06:08:37.730Z,10.25
2022-08-17T06:11:27.046Z,9.77
2022-08-17T06:14:07.292Z,10.65
2022-08-17T06:16:41.049Z,11.63
2022-08-17T06:19:40.704Z,10.95
2022-08-17T06:22:08.733Z,11.32
2022-08-17T06:24:41.949Z,10.98
2022-08-17T06:27:30.250Z,11.50
2022-08-17T06:29:57.338Z,12.45
2022-08-17T06:32:25.046Z,11.85
2022-08-17T06:34:52.228Z,12.15
2022-08-17T06:37:19.264Z,12.63
2022-08-17T06:40:05.892Z,13.18
2022-08-17T06:42:54.995Z,13.52
2022-08-17T06:45:39.604Z,13.35
2022-08-17T06:48:13.549Z,12.70
2022-08-17T06:50:44.816Z,12.63
2022-08-17T06:53:23.069Z,14.07
2022-08-17T06:56:02.977Z,13.75
2022-08-17T06:58:33.278Z,13.55
2022-08-17T07:01:07.238Z,13.30
2022-08-17T07:03:37.518Z,13.65
2022-08-17T07:06:19.099Z,13.95
2022-08-17T07:09:03.563Z,14.13
2022-08-17T07:11:32.702Z,14.70
2022-08-17T07:14:04.427Z,15.07
2022-08-17T07:16:43.937Z,15.30
2022-08-17T07:19:11.882Z,15.02
2022-08-17T07:21:51.609Z,15.50
2022-08-17T07:24:33.473Z,15.07
2022-08-17T07:27:20.768Z,15.68
2022-08-17T07:29:53.795Z,16.35
2022-08-17T07:32:23.684Z,18.13
2022-08-17T07:35:11.645Z,17.70
2022-08-17T07:37:43.172Z,18.67
2022-08-17T07:40:18.925Z,18.83
2022-08-17T07:43:01.110Z,18.65
2022-08-17T07:45:49.797Z,20.15
2022-08-17T07:48:20.133Z,21.90
2022-08-17T07:50:49.561Z,22.92
2022-08-17T07:53:23.190Z,22.17
2022-08-17T07:55:50.873Z,22.55
2022-08-17T07:58:19.197Z,22.48
2022-08-17T08:00:46.918Z,24.13
2022-08-17T08:03:17.269Z,22.15
2022-08-17T08:05:51.087Z,23.63
2022-08-17T08:08:33.531Z,25.48
2022-08-17T08:11:08.473Z,25.85
2022-08-17T08:13:42.218Z,25.52
2022-08-17T08:16:19.864Z,25.00
2022-08-17T08:18:54.044Z,26.40
2022-08-17T08:21:32.180Z,27.25
2022-08-17T08:24:22.654Z,27.83
2022-08-17T08:27:19.469Z,27.48
2022-08-17T08:29:55.501Z,28.80
2022-08-17T08:32:28.490Z,27.73
2022-08-17T08:35:01.643Z,26.45
2022-08-17T08:37:53.275Z,28.08
2022-08-17T08:40:20.478Z,30.20
2022-08-17T08:42:53.225Z,28.50
2022-08-17T08:45:26.593Z,27.15
2022-08-17T08:48:12.764Z,28.38
2022-08-17T08:51:18.359Z,27.95
2022-08-17T08:53:51.827Z,27.45
2022-08-17T08:56:28.051Z,29.23
2022-08-17T08:59:01.242Z,28.45
2022-08-17T09:01:40.835Z,28.02
2022-08-17T09:05:10.596Z,27.88
2022-08-17T09:07:37.456Z,26.48
2022-08-17T09:10:04.992Z,26.80
2022-08-17T09:12:50.941Z,24.65
2022-08-17T09:15:34.794Z,25.20
2022-08-17T09:19:00.877Z,29.70
2022-08-17T09:20:58.116Z,27.13
2022-08-17T09:23:33.062Z,27.33
2022-08-17T09:26:06.087Z,26.17
2022-08-17T09:28:37.342Z,25.77
2022-08-17T09:31:08.408Z,25.35
2022-08-17T09:33:37.741Z,22.52
2022-08-17T09:36:21.685Z,20.13
2022-08-17T09:38:48.762Z,22.45
2022-08-17T09:41:15.878Z,20.88
2022-08-17T09:43:59.314Z,15.65
2022-08-17T09:46:30.663Z,21.25
2022-08-17T09:49:09.731Z,25.42
2022-08-17T09:51:40.491Z,20.23
2022-08-17T09:54:37.441Z,22.98
2022-08-17T09:57:29.072Z,23.35
2022-08-17T10:00:28.618Z,23.40
2022-08-17T10:03:20.641Z,24.90
2022-08-17T10:05:47.696Z,22.38
2022-08-17T10:08:22.912Z,23.55
2022-08-17T10:11:08.271Z,24.88
2022-08-17T10:13:41.411Z,22.95
2022-08-17T10:16:20.482Z,20.67
2022-08-17T10:18:56.476Z,22.52
2022-08-17T10:21:43.106Z,21.13
2022-08-17T10:24:32.468Z,21.83
2022-08-17T10:27:01.293Z,19.35
2022-08-17T10:29:54.547Z,23.48
2022-08-17T10:32:33.401Z,16.73
2022-08-17T10:35:11.326Z,15.57
2022-08-17T10:37:46.578Z,20.42
2022-08-17T10:40:23.418Z,22.42
2022-08-17T10:43:03.254Z,19.58
2022-08-17T10:45:35.791Z,21.70
2022-08-17T10:48:09.976Z,23.27
2022-08-17T10:50:40.078Z,23.17
2022-08-17T10:53:07.146Z,19.65
2022-08-17T10:55:34.248Z,19.92
2022-08-17T10:58:20.857Z,20.45
2022-08-17T11:00:56.173Z,19.83
2022-08-17T11:03:24.663Z,19.55
2022-08-17T11:05:58.224Z,20.15
2022-08-17T11:08:25.246Z,19.67
2022-08-17T11:11:12.954Z,20.77
2022-08-17T11:14:00.256Z,21.15
2022-08-17T11:16:27.330Z,20.70
2022-08-17T11:19:13.175Z,20.27
2022-08-17T11:21:59.036Z,18.98
2022-08-17T11:24:34.884Z,20.77
2022-08-17T11:27:04.377Z,21.13
2022-08-17T11:29:36.272Z,20.30
2022-08-17T11:32:13.206Z,20.77
2022-08-17T11:34:44.504Z,21.42
2022-08-17T11:37:31.890Z,21.65
2022-08-17T11:40:24.378Z,20.83
2022-08-17T11:42:57.583Z,23.40
2022-08-17T11:45:43.497Z,22.55
2022-08-17T11:48:48.987Z,24.13
2022-08-17T11:51:34.394Z,23.95
2022-08-17T11:54:32.335Z,24.63
2022-08-17T11:57:02.328Z,24.42
2022-08-17T11:59:43.668Z,25.85
2022-08-17T12:02:32.571Z,24.50
2022-08-17T12:05:02.996Z,24.63
2022-08-17T12:07:32.573Z,24.60
2022-08-17T12:10:00.380Z,25.63
2022-08-17T12:12:35.792Z,26.73
2022-08-17T12:15:12.540Z,26.38
2022-08-17T12:17:52.435Z,26.85
2022-08-17T12:20:21.377Z,29.58
2022-08-17T12:22:56.274Z,29.85
2022-08-17T12:25:36.627Z,29.08
2022-08-17T12:28:06.540Z,31.48
2022-08-17T12:30:35.959Z,29.70
2022-08-17T12:33:05.137Z,34.10
2022-08-17T12:35:35.084Z,34.83
2022-08-17T12:38:03.211Z,37.15
2022-08-17T12:40:31.528Z,34.28
2022-08-17T12:43:02.559Z,34.80
2022-08-17T12:45:31.152Z,36.58
2022-08-17T12:48:04.070Z,36.10
2022-08-17T12:50:32.096Z,37.67
2022-08-17T12:53:02.337Z,37.83
2022-08-17T12:55:32.569Z,36.90
2022-08-17T12:58:01.945Z,38.08
2022-08-17T13:00:33.682Z,35.63
2022-08-17T13:03:00.740Z,37.47
2022-08-17T13:05:29.563Z,37.00
2022-08-17T13:07:58.328Z,37.38
2022-08-17T13:10:32.743Z,36.25
2022-08-17T13:13:04.914Z,36.55
2022-08-17T13:15:44.433Z,37.20
2022-08-17T13:18:32.032Z,36.03
2022-08-17T13:20:59.861Z,37.47
2022-08-17T13:23:29.140Z,37.45
2022-08-17T13:25:58.374Z,35.50
2022-08-17T13:28:35.649Z,35.08
2022-08-17T13:31:22.079Z,35.13
2022-08-17T13:33:50.060Z,34.00
2022-08-17T13:36:32.712Z,32.05
2022-08-17T13:39:18.741Z,38.33
2022-08-17T13:41:46.115Z,35.75
2022-08-17T13:44:33.164Z,33.10
2022-08-17T13:47:00.957Z,34.67
2022-08-17T13:49:41.867Z,31.30
2022-08-17T13:52:34.952Z,30.02
2022-08-17T13:55:09.809Z,34.72
2022-08-17T13:57:37.213Z,33.83
2022-08-17T14:00:30.530Z,33.10
2022-08-17T14:03:01.733Z,34.10
2022-08-17T14:05:30.554Z,31.75
2022-08-17T14:08:02.422Z,34.60
2022-08-17T14:10:36.370Z,33.75
2022-08-17T14:13:03.591Z,34.05
2022-08-17T14:15:56.330Z,36.28
2022-08-17T14:18:55.475Z,36.65
2022-08-17T14:21:08.260Z,36.00
2022-08-17T14:23:37.361Z,35.72
2022-08-17T14:26:05.214Z,36.53
2022-08-17T14:28:32.325Z,36.38
2022-08-17T14:31:00.650Z,34.05
2022-08-17T14:33:28.422Z,36.63
2022-08-17T14:35:55.837Z,34.40
2022-08-17T14:38:23.333Z,36.33
2022-08-17T14:40:50.521Z,32.88
2022-08-17T14:43:18.388Z,34.22
2022-08-17T14:45:45.535Z,32.13
2022-08-17T14:48:12.611Z,35.55
2022-08-17T14:50:40.996Z,34.03
2022-08-17T14:53:09.858Z,30.88
2022-08-17T14:55:39.709Z,31.10
2022-08-17T14:58:07.495Z,29.35
2022-08-17T15:00:34.649Z,27.70
2022-08-17T15:03:02.133Z,27.65
2022-08-17T15:05:31.470Z,26.42
2022-08-17T15:07:59.073Z,28.27
2022-08-17T15:10:26.178Z,25.40
2022-08-17T15:12:53.307Z,24.67
2022-08-17T15:15:20.688Z,20.92
2022-08-17T15:17:47.753Z,18.88
2022-08-17T15:20:16.977Z,23.48
2022-08-17T15:22:44.962Z,22.33
2022-08-17T15:25:12.494Z,23.65
2022-08-17T15:27:40.209Z,22.40
2022-08-17T15:30:07.546Z,21.63
2022-08-17T15:32:36.007Z,21.45
2022-08-17T15:35:04.187Z,24.08
2022-08-17T15:37:32.063Z,22.80
2022-08-17T15:40:01.963Z,19.30
2022-08-17T15:42:29.326Z,17.58
2022-08-17T15:44:56.459Z,19.20
2022-08-17T15:47:23.964Z,18.67
2022-08-17T15:49:52.775Z,18.92
2022-08-17T15:52:23.457Z,20.50
2022-08-17T15:54:54.786Z,20.90
2022-08-17T15:57:23.920Z,23.98
2022-08-17T15:59:52.097Z,20.75
2022-08-17T16:03:13.775Z,21.00
2022-08-17T16:05:17.478Z,17.02
2022-08-17T16:07:50.290Z,16.80
2022-08-17T16:10:19.273Z,14.73
2022-08-17T16:12:47.414Z,15.00
2022-08-17T16:15:14.804Z,15.38
2022-08-17T16:17:42.109Z,15.38
2022-08-17T16:20:10.008Z,16.63
2022-08-17T16:22:47.893Z,15.75
2022-08-17T16:25:17.922Z,14.68
2022-08-17T16:27:45.090Z,14.75
2022-08-17T16:30:17.078Z,13.65
2022-08-17T16:32:44.967Z,13.85
2022-08-17T16:35:17.277Z,14.75
2022-08-17T16:37:45.501Z,15.65
2022-08-17T16:40:13.579Z,14.65
2022-08-17T16:42:41.066Z,15.00
2022-08-17T16:45:10.054Z,16.55
2022-08-17T16:47:37.766Z,15.60
2022-08-17T16:50:06.331Z,15.52
2022-08-17T16:52:33.843Z,15.05
2022-08-17T16:55:02.062Z,12.93
2022-08-17T16:57:30.010Z,13.57
2022-08-17T16:59:57.261Z,15.02
2022-08-17T17:02:36.268Z,15.65
2022-08-17T17:05:03.546Z,14.25
2022-08-17T17:07:33.845Z,14.43
2022-08-17T17:10:15.046Z,15.13
2022-08-17T17:13:03.014Z,14.00
2022-08-17T17:15:37.163Z,14.45
2022-08-17T17:18:07.217Z,14.85
2022-08-17T17:20:43.609Z,13.75
2022-08-17T17:23:19.403Z,12.82
2022-08-17T17:25:55.683Z,13.00
2022-08-17T17:28:30.827Z,13.05
2022-08-17T17:31:11.296Z,14.20
2022-08-17T17:33:40.229Z,13.82
2022-08-17T17:36:25.826Z,12.77
2022-08-17T17:38:55.160Z,13.68
2022-08-17T17:41:34.466Z,12.90
2022-08-17T17:44:12.053Z,15.18
2022-08-17T17:46:41.307Z,14.18
2022-08-17T17:49:11.132Z,13.13
2022-08-17T17:52:06.625Z,14.23
2022-08-17T17:54:38.390Z,13.55
2022-08-17T17:57:11.682Z,14.32
2022-08-17T17:59:44.609Z,15.48
2022-08-17T18:02:51.937Z,15.57
2022-08-17T18:05:22.633Z,14.52
2022-08-17T18:07:56.174Z,16.60
2022-08-17T18:10:30.187Z,15.80
2022-08-17T18:13:16.767Z,17.27
2022-08-17T18:15:51.180Z,17.70
2022-08-17T18:18:18.317Z,19.00
2022-08-17T18:20:53.861Z,18.98
2022-08-17T18:23:28.205Z,16.77
2022-08-17T18:25:55.970Z,17.45
2022-08-17T18:28:32.081Z,17.60
2022-08-17T18:31:05.198Z,17.67
2022-08-17T18:33:33.924Z,17.52
2022-08-17T18:36:01.550Z,16.65
2022-08-17T18:38:33.841Z,18.67
2022-08-17T18:41:07.395Z,18.10
2022-08-17T18:43:44.036Z,19.35
2022-08-17T18:46:28.219Z,18.48
2022-08-17T18:48:59.070Z,19.67
2022-08-17T18:51:40.629Z,19.88
2022-08-17T18:54:23.218Z,19.08
2022-08-17T18:56:56.351Z,19.95
2022-08-17T18:59:35.397Z,19.95
2022-08-17T19:02:23.241Z,19.10
2022-08-17T19:05:14.636Z,20.38
2022-08-17T19:07:43.287Z,21.23
2022-08-17T19:10:28.886Z,20.42
2022-08-17T19:13:00.233Z,23.10
2022-08-17T19:15:35.650Z,21.48
2022-08-17T19:18:15.562Z,21.67
2022-08-17T19:20:46.206Z,22.10
2022-08-17T19:23:33.101Z,22.52
2022-08-17T19:26:02.374Z,21.25
2022-08-17T19:28:37.423Z,20.98
2022-08-17T19:31:09.659Z,20.75
2022-08-17T19:33:37.511Z,20.70
2022-08-17T19:36:10.473Z,21.15
2022-08-17T19:38:49.877Z,21.98
2022-08-17T19:41:19.791Z,21.30
2022-08-17T19:44:01.243Z,21.77
2022-08-17T19:46:49.837Z,22.20
2022-08-17T19:49:32.879Z,21.33
2022-08-17T19:52:17.614Z,22.23
2022-08-17T19:54:55.217Z,22.70
2022-08-17T19:57:30.110Z,22.05
2022-08-17T19:59:57.176Z,21.48
2022-08-17T20:02:37.782Z,21.58
2022-08-17T20:05:08.453Z,22.30
2022-08-17T20:07:50.190Z,22.58
2022-08-17T20:10:29.344Z,22.50
2022-08-17T20:12:59.624Z,22.73
2022-08-17T20:15:29.718Z,22.75
2022-08-17T20:17:59.465Z,24.02
2022-08-17T20:20:34.252Z,24.02
2022-08-17T20:23:19.857Z,23.10
2022-08-17T20:25:49.554Z,23.45
2022-08-17T20:28:19.372Z,23.23
2022-08-17T20:30:46.548Z,25.98
2022-08-17T20:33:39.581Z,26.30
2022-08-17T20:36:12.765Z,26.08
2022-08-17T20:38:41.999Z,27.15
2022-08-17T20:41:20.832Z,27.35
2022-08-17T20:43:59.020Z,29.25
2022-08-17T20:46:28.940Z,27.77
2022-08-17T20:49:00.516Z,29.02
2022-08-17T20:51:32.496Z,29.55
2022-08-17T20:54:01.703Z,31.98
2022-08-17T20:56:44.250Z,30.65
2022-08-17T20:59:25.537Z,30.40
2022-08-17T21:02:13.833Z,30.63
2022-08-17T21:04:52.876Z,30.42
2022-08-17T21:07:25.145Z,29.10
2022-08-17T21:09:52.279Z,30.05
2022-08-17T21:12:40.356Z,27.55
2022-08-17T21:15:17.102Z,29.42
2022-08-17T21:17:49.286Z,29.98
2022-08-17T21:20:36.624Z,29.48
2022-08-17T21:23:06.749Z,30.27
2022-08-17T21:25:49.014Z,29.48
2022-08-17T21:28:30.139Z,29.77
2022-08-17T21:31:08.269Z,31.50
2022-08-17T21:33:36.331Z,32.55
2022-08-17T21:36:12.308Z,32.42
2022-08-17T21:38:39.544Z,31.02
2022-08-17T21:41:06.625Z,32.35
2022-08-17T21:43:35.580Z,32.50
2022-08-17T21:46:05.006Z,33.28
2022-08-17T21:48:41.288Z,36.65
2022-08-17T21:51:10.233Z,35.88
2022-08-17T21:53:48.921Z,34.65
2022-08-17T21:56:24.630Z,35.25
2022-08-17T21:58:58.151Z,35.88
2022-08-17T22:01:26.907Z,36.63
2022-08-17T22:03:55.682Z,38.03
2022-08-17T22:06:28.278Z,36.95
2022-08-17T22:09:16.216Z,35.50
2022-08-17T22:11:52.555Z,35.65
2022-08-17T22:14:25.612Z,36.33
2022-08-17T22:17:14.567Z,34.60
2022-08-17T22:19:43.454Z,34.47
2022-08-17T22:22:21.648Z,32.83
2022-08-17T22:24:56.853Z,34.72
2022-08-17T22:27:45.654Z,33.10
2022-08-17T22:30:27.459Z,33.92
2022-08-17T22:32:55.339Z,34.40
2022-08-17T22:35:36.083Z,34.13
2022-08-17T22:38:18.540Z,34.67
2022-08-17T22:40:56.410Z,37.33
2022-08-17T22:43:26.224Z,38.90
2022-08-17T22:45:55.235Z,37.00
2022-08-17T22:48:27.210Z,36.80
2022-08-17T22:51:04.137Z,39.25
2022-08-17T22:54:04.780Z,40.25
2022-08-17T22:56:50.824Z,38.63
2022-08-17T22:59:37.946Z,37.70
2022-08-17T23:02:13.863Z,36.97
2022-08-17T23:04:43.905Z,35.95
2022-08-17T23:07:10.953Z,37.35
2022-08-17T23:09:38.163Z,38.15
2022-08-17T23:12:08.187Z,37.65
2022-08-17T23:14:37.900Z,36.20
2022-08-17T23:17:06.242Z,36.72
2022-08-17T23:19:33.833Z,35.97
2022-08-17T23:22:02.608Z,35.83
2022-08-17T23:24:30.591Z,34.40
2022-08-17T23:26:58.922Z,34.03
2022-08-17T23:29:29.110Z,33.65
2022-08-17T23:31:59.552Z,32.10
2022-08-17T23:34:27.959Z,32.25
2022-08-17T23:36:55.771Z,32.17
2022-08-17T23:39:24.716Z,32.88
2022-08-17T23:41:54.629Z,34.17
2022-08-17T23:44:25.234Z,34.33
2022-08-17T23:46:53.107Z,32.85
2022-08-17T23:49:20.618Z,34.70
2022-08-17T23:51:48.462Z,34.22
2022-08-17T23:54:33.505Z,34.55
2022-08-17T23:57:04.884Z,32.97
2022-08-17T23:59:33.745Z,35.25
